Time;durP1;ratioP1;P1;durP2;ratioP2;P2;SDS_P1;SDS_P2;PMS_P1;PMS_P2;Temp;Humidity;BMP_temperature;BMP_pressure;BME280_temperature;BME280_humidity;BME280_pressure;Samples;Min_cycle;Max_cycle;Signal;HPM_P1;HPM_P2
2023/10/20 00:04:12;;;;;;;3.17;2.95;;;;;15.00;97774.00;;;;10324753;28;20301;-73
2023/10/20 00:09:18;;;;;;;2.88;2.67;;;;;15.00;97746.00;;;;10309405;28;20272;-72
2023/10/20 00:14:19;;;;;;;5.22;3.20;;;;;15.00;97742.00;;;;10329196;28;20230;-72
2023/10/20 00:19:21;;;;;;;4.30;2.72;;;;;15.00;97731.00;;;;10328149;28;20209;-73
2023/10/20 00:24:23;;;;;;;3.47;2.97;;;;;15.00;97723.00;;;;10326326;28;21628;-72
2023/10/20 00:29:25;;;;;;;4.47;2.85;;;;;15.00;97734.00;;;;10309999;28;20271;-72
2023/10/20 00:34:27;;;;;;;9.65;2.67;;;;;15.00;97726.00;;;;10338309;28;21960;-74
2023/10/20 00:39:30;;;;;;;3.00;2.70;;;;;15.00;97714.00;;;;10338773;28;20214;-73
2023/10/20 00:44:32;;;;;;;3.17;2.85;;;;;15.00;97708.00;;;;10305929;28;20213;-73
2023/10/20 00:49:36;;;;;;;3.92;2.70;;;;;15.00;97708.00;;;;10319814;28;20217;-73
2023/10/20 00:54:38;;;;;;;5.57;2.92;;;;;15.00;97691.00;;;;10338245;28;20221;-73
2023/10/20 00:59:40;;;;;;;5.88;3.53;;;;;15.00;97680.00;;;;10339403;28;20260;-73
2023/10/20 01:04:42;;;;;;;5.32;3.50;;;;;14.90;97680.00;;;;10336084;28;20264;-73
2023/10/20 01:09:43;;;;;;;3.85;3.08;;;;;14.90;97680.00;;;;10319187;28;20917;-73
2023/10/20 01:14:45;;;;;;;3.60;3.25;;;;;14.90;97683.00;;;;10338000;28;20276;-73
2023/10/20 01:19:47;;;;;;;4.18;3.47;;;;;14.90;97677.00;;;;10320584;28;20222;-73
2023/10/20 01:24:49;;;;;;;6.25;3.47;;;;;14.90;97668.00;;;;10336527;28;20230;-73
2023/10/20 01:29:51;;;;;;;3.58;3.28;;;;;14.80;97679.00;;;;10319808;28;21117;-73
2023/10/20 01:34:53;;;;;;;6.53;4.22;;;;;14.80;97655.00;;;;10334624;28;21384;-73
2023/10/20 01:39:55;;;;;;;5.70;3.85;;;;;14.80;97647.00;;;;10335468;28;20276;-73
2023/10/20 01:44:57;;;;;;;4.45;4.05;;;;;14.70;97638.00;;;;10309912;28;20260;-72
2023/10/20 01:49:59;;;;;;;6.13;4.03;;;;;14.70;97617.00;;;;10328291;28;20324;-71
2023/10/20 01:55:02;;;;;;;7.60;4.65;;;;;14.70;97611.00;;;;10313847;28;20265;-73
2023/10/20 02:00:08;;;;;;;6.25;4.90;;;;;14.60;97596.00;;;;10328704;28;20298;-73
2023/10/20 02:05:13;;;;;;;8.00;5.40;;;;;14.60;97584.00;;;;10313128;28;21330;-73
2023/10/20 02:10:16;;;;;;;6.18;5.30;;;;;14.60;97570.00;;;;10332045;28;20266;-73
2023/10/20 02:15:18;;;;;;;7.03;6.03;;;;;14.50;97553.00;;;;10322026;28;20280;-73
2023/10/20 02:20:22;;;;;;;8.30;6.22;;;;;14.50;97568.00;;;;10337913;28;20245;-72
2023/10/20 02:25:25;;;;;;;8.95;7.70;;;;;14.50;97548.00;;;;10337607;28;20230;-72
2023/10/20 02:30:27;;;;;;;11.57;8.38;;;;;14.60;97543.00;;;;10321291;28;20909;-72
2023/10/20 02:35:29;;;;;;;9.43;8.63;;;;;14.50;97531.00;;;;10320938;28;20269;-72
2023/10/20 02:40:31;;;;;;;11.25;9.80;;;;;14.50;97520.00;;;;10334635;28;20210;-71
2023/10/20 02:45:32;;;;;;;11.10;9.93;;;;;14.50;97524.00;;;;10333016;28;20210;-71
2023/10/20 02:50:35;;;;;;;10.63;9.57;;;;;14.50;97522.00;;;;10334291;28;20740;-72
2023/10/20 02:55:37;;;;;;;11.80;10.60;;;;;14.50;97501.00;;;;10334184;28;20671;-71
2023/10/20 03:00:43;;;;;;;12.18;10.98;;;;;14.50;97485.00;;;;10333332;28;20384;-72
2023/10/20 03:05:45;;;;;;;13.15;11.52;;;;;14.50;97466.00;;;;10331534;28;20221;-72
2023/10/20 03:10:47;;;;;;;13.45;10.15;;;;;14.50;97468.00;;;;10331254;28;20214;-72
2023/10/20 03:15:50;;;;;;;12.68;10.85;;;;;14.50;97470.00;;;;10334910;28;20245;-72
2023/10/20 03:20:52;;;;;;;13.57;11.60;;;;;14.50;97463.00;;;;10334492;28;22414;-72
2023/10/20 03:25:54;;;;;;;13.10;11.70;;;;;14.50;97440.00;;;;10330561;28;21578;-72
2023/10/20 03:30:56;;;;;;;13.23;11.23;;;;;14.50;97448.00;;;;10341328;28;20253;-72
2023/10/20 03:36:03;;;;;;;12.80;10.65;;;;;14.50;97435.00;;;;10330284;28;20254;-72
2023/10/20 03:41:06;;;;;;;13.38;11.35;;;;;14.50;97398.00;;;;10331197;28;20690;-73
2023/10/20 03:46:10;;;;;;;16.90;11.95;;;;;14.50;97405.00;;;;10312499;28;20206;-72
2023/10/20 03:51:12;;;;;;;13.65;11.02;;;;;14.40;97399.00;;;;10326908;28;20233;-72
2023/10/20 03:56:18;;;;;;;14.75;11.55;;;;;14.40;97391.00;;;;10331283;28;20334;-72
2023/10/20 04:01:21;;;;;;;12.57;11.02;;;;;14.40;97370.00;;;;10333226;28;20214;-72
2023/10/20 04:06:23;;;;;;;13.25;11.93;;;;;14.40;97371.00;;;;10329273;28;20218;-73
2023/10/20 04:11:25;;;;;;;16.50;12.18;;;;;14.30;97363.00;;;;10328880;28;20213;-71
2023/10/20 04:16:27;;;;;;;17.52;12.98;;;;;14.30;97355.00;;;;10328733;28;20241;-71
2023/10/20 04:21:29;;;;;;;14.07;11.68;;;;;14.30;97345.00;;;;10318396;28;20253;-71
2023/10/20 04:26:31;;;;;;;13.93;12.35;;;;;14.30;97340.00;;;;10324563;28;20230;-72
2023/10/20 04:57:49;;;;;;;15.73;13.68;;;;;14.40;97268.00;;;;10328077;28;20326;-71
2023/10/20 05:08:04;;;;;;;16.90;13.57;;;;;14.40;97266.00;;;;10331597;28;20225;-72
2023/10/20 05:13:06;;;;;;;20.30;13.73;;;;;14.40;97258.00;;;;10306962;28;20202;-72
2023/10/20 05:18:17;;;;;;;16.35;12.70;;;;;14.40;97237.00;;;;10315455;28;20898;-71
2023/10/20 05:23:19;;;;;;;16.10;12.15;;;;;14.40;97243.00;;;;10308417;28;20225;-72
2023/10/20 05:28:23;;;;;;;15.98;13.18;;;;;14.40;97229.00;;;;10310319;28;22185;-71
2023/10/20 05:33:26;;;;;;;18.90;12.60;;;;;14.40;97220.00;;;;10309144;28;20221;-71
2023/10/20 05:38:28;;;;;;;16.58;12.55;;;;;14.40;97211.00;;;;10308087;28;20226;-72
2023/10/20 05:43:30;;;;;;;16.20;11.63;;;;;14.50;97221.00;;;;10313636;28;21135;-72
2023/10/20 05:48:32;;;;;;;13.60;11.82;;;;;14.50;97220.00;;;;10324451;28;20210;-72
2023/10/20 05:53:34;;;;;;;14.15;12.27;;;;;14.50;97228.00;;;;10320624;28;20209;-71
2023/10/20 05:58:37;;;;;;;12.57;11.38;;;;;14.50;97214.00;;;;10300769;28;20254;-72
2023/10/20 06:03:40;;;;;;;13.00;11.65;;;;;14.50;97208.00;;;;10292018;28;20217;-72
2023/10/20 06:08:42;;;;;;;12.77;11.48;;;;;14.50;97205.00;;;;10307841;28;20276;-72
2023/10/20 06:13:43;;;;;;;18.90;12.40;;;;;14.50;97210.00;;;;10327030;28;20221;-72
2023/10/20 06:18:45;;;;;;;14.95;12.35;;;;;14.50;97207.00;;;;10319803;28;20928;-72
2023/10/20 06:23:48;;;;;;;13.00;11.57;;;;;14.50;97205.00;;;;10340911;28;20202;-73
2023/10/20 06:28:51;;;;;;;17.67;11.63;;;;;14.50;97188.00;;;;10358245;28;20214;-73
2023/10/20 06:39:18;;;;;;;16.83;12.65;;;;;14.50;97193.00;;;;10340728;28;20228;-74
2023/10/20 06:44:21;;;;;;;13.27;11.95;;;;;14.60;97197.00;;;;10342065;28;20296;-73
2023/10/20 06:49:23;;;;;;;13.43;12.13;;;;;14.60;97194.00;;;;10318739;28;20210;-73
2023/10/20 06:54:25;;;;;;;13.88;11.70;;;;;14.60;97196.00;;;;10280324;28;20225;-73
2023/10/20 06:59:27;;;;;;;12.45;10.60;;;;;14.70;97202.00;;;;10338223;28;20642;-73
2023/10/20 07:04:29;;;;;;;12.25;11.07;;;;;14.70;97203.00;;;;10340535;28;20207;-73
2023/10/20 07:09:31;;;;;;;13.23;11.75;;;;;14.70;97184.00;;;;10336666;28;20199;-73
2023/10/20 07:14:34;;;;;;;12.35;11.15;;;;;14.70;97192.00;;;;10305004;28;20209;-73
2023/10/20 07:19:36;;;;;;;15.18;10.70;;;;;14.70;97172.00;;;;10339584;28;20222;-73
2023/10/20 07:24:39;;;;;;;13.40;10.45;;;;;14.80;97174.00;;;;10320285;28;20284;-73
2023/10/20 07:29:41;;;;;;;11.05;9.75;;;;;14.90;97167.00;;;;10324823;28;20210;-73
2023/10/20 07:34:46;;;;;;;15.40;10.93;;;;;14.90;97154.00;;;;10330851;28;20641;-72
2023/10/20 07:39:52;;;;;;;10.70;9.70;;;;;15.00;97149.00;;;;10317038;28;20222;-71
2023/10/20 07:44:54;;;;;;;11.07;9.88;;;;;15.20;97163.00;;;;10327591;28;20242;-73
2023/10/20 07:49:57;;;;;;;14.35;10.85;;;;;15.30;97167.00;;;;10325317;28;20206;-73
2023/10/20 07:55:01;;;;;;;11.57;10.40;;;;;15.30;97171.00;;;;10311805;28;20214;-72
2023/10/20 08:00:03;;;;;;;10.52;9.52;;;;;15.20;97186.00;;;;10308413;28;21903;-73
2023/10/20 08:05:12;;;;;;;12.27;9.57;;;;;15.20;97170.00;;;;10321115;28;20221;-73
2023/10/20 08:10:15;;;;;;;11.75;9.88;;;;;15.20;97180.00;;;;10332277;28;20217;-72
2023/10/20 08:15:17;;;;;;;10.75;9.63;;;;;15.30;97169.00;;;;10302855;28;20230;-72
2023/10/20 08:20:19;;;;;;;11.65;9.40;;;;;15.40;97158.00;;;;10311675;28;20348;-72
2023/10/20 08:25:21;;;;;;;9.15;8.25;;;;;15.40;97156.00;;;;10276100;28;20871;-73
2023/10/20 08:30:22;;;;;;;9.50;8.32;;;;;15.40;97174.00;;;;10333327;28;20272;-72
2023/10/20 08:35:25;;;;;;;11.15;9.27;;;;;15.50;97170.00;;;;10330905;28;20244;-72
2023/10/20 08:40:34;;;;;;;11.63;9.07;;;;;15.50;97160.00;;;;10327404;28;20337;-72
2023/10/20 08:45:52;;;;;;;9.98;8.98;;;;;15.60;97151.00;;;;10316774;28;20263;-72
2023/10/20 08:50:56;;;;;;;10.63;8.43;;;;;15.50;97145.00;;;;10289421;28;21857;-72
2023/10/20 08:55:58;;;;;;;11.88;8.55;;;;;15.50;97146.00;;;;10291590;28;20308;-72
2023/10/20 09:01:02;;;;;;;10.48;9.35;;;;;15.60;97143.00;;;;10293080;28;20304;-72
2023/10/20 09:06:09;;;;;;;12.25;9.75;;;;;15.60;97139.00;;;;10290023;28;20218;-72
2023/10/20 09:11:11;;;;;;;9.60;8.38;;;;;15.70;97147.00;;;;10310483;28;21180;-72
2023/10/20 09:16:14;;;;;;;8.40;7.47;;;;;15.70;97151.00;;;;10292066;28;20226;-72
2023/10/20 09:21:21;;;;;;;7.75;6.95;;;;;15.70;97143.00;;;;10307430;28;20218;-72
2023/10/20 09:26:24;;;;;;;9.35;7.05;;;;;15.70;97154.00;;;;10306401;28;20202;-72
2023/10/20 09:31:28;;;;;;;6.53;5.30;;;;;15.70;97161.00;;;;10301200;28;20210;-72
2023/10/20 09:36:31;;;;;;;5.88;5.28;;;;;15.80;97157.00;;;;10289033;28;21120;-72
2023/10/20 09:41:36;;;;;;;5.53;4.68;;;;;15.70;97157.00;;;;10307859;28;21212;-72
2023/10/20 09:46:55;;;;;;;6.32;4.00;;;;;15.70;97146.00;;;;10271737;28;20222;-72
2023/10/20 09:51:57;;;;;;;4.30;3.90;;;;;15.70;97149.00;;;;10308114;28;20218;-73
2023/10/20 09:57:00;;;;;;;6.68;3.80;;;;;15.80;97146.00;;;;10296506;28;20238;-73
2023/10/20 10:02:02;;;;;;;5.22;3.75;;;;;16.10;97153.00;;;;10310358;28;20238;-73
2023/10/20 10:07:05;;;;;;;5.50;3.60;;;;;16.30;97160.00;;;;10310644;28;20214;-73
2023/10/20 10:12:14;;;;;;;6.40;4.22;;;;;16.50;97164.00;;;;10310770;28;20280;-73
2023/10/20 10:17:20;;;;;;;5.65;4.03;;;;;16.70;97160.00;;;;10309988;28;20230;-73
2023/10/20 10:22:26;;;;;;;5.90;2.95;;;;;16.60;97172.00;;;;10328217;28;21953;-72
2023/10/20 10:27:29;;;;;;;2.33;1.52;;;;;16.40;97176.00;;;;10288726;28;20229;-73
2023/10/20 10:32:33;;;;;;;2.25;2.00;;;;;16.30;97177.00;;;;10327073;28;20214;-73
2023/10/20 10:37:37;;;;;;;6.05;2.00;;;;;16.60;97163.00;;;;10339257;28;20222;-73
2023/10/20 10:42:45;;;;;;;2.17;1.80;;;;;16.60;97177.00;;;;10323585;28;20295;-72
2023/10/20 10:47:48;;;;;;;3.95;1.70;;;;;16.50;97178.00;;;;10320715;28;21114;-72
2023/10/20 10:52:50;;;;;;;3.30;2.30;;;;;16.40;97183.00;;;;10339226;28;20305;-72
2023/10/20 10:57:54;;;;;;;3.22;2.90;;;;;16.10;97197.00;;;;10322583;28;20287;-72
2023/10/20 11:02:57;;;;;;;4.22;2.90;;;;;15.90;97193.00;;;;10310591;28;21203;-72
2023/10/20 11:08:10;;;;;;;3.65;3.20;;;;;15.70;97204.00;;;;10309797;28;20206;-72
2023/10/20 11:13:16;;;;;;;7.32;2.90;;;;;15.60;97215.00;;;;10318189;28;20209;-73
2023/10/20 11:18:22;;;;;;;4.78;2.58;;;;;15.50;97201.00;;;;10310264;28;20353;-72
2023/10/20 11:23:31;;;;;;;4.15;2.17;;;;;15.40;97194.00;;;;10302397;28;20285;-73
2023/10/20 11:28:37;;;;;;;5.22;3.30;;;;;15.50;97186.00;;;;10324973;28;21297;-72
2023/10/20 11:33:39;;;;;;;8.98;4.28;;;;;15.60;97183.00;;;;10329935;28;20218;-73
2023/10/20 11:38:41;;;;;;;7.13;4.75;;;;;15.70;97196.00;;;;10293408;28;20276;-72
2023/10/20 11:43:43;;;;;;;8.82;5.00;;;;;15.70;97196.00;;;;10329829;28;20304;-73
2023/10/20 11:48:47;;;;;;;13.70;5.72;;;;;15.60;97200.00;;;;10308138;28;20210;-72
2023/10/20 11:53:49;;;;;;;9.07;5.47;;;;;15.60;97204.00;;;;10328496;28;20261;-72
2023/10/20 11:58:51;;;;;;;11.48;5.70;;;;;15.70;97208.00;;;;10308250;28;20234;-72
2023/10/20 12:03:52;;;;;;;8.25;6.75;;;;;15.60;97216.00;;;;10323556;28;20279;-72
2023/10/20 12:08:55;;;;;;;9.02;6.40;;;;;15.50;97226.00;;;;10309055;28;20241;-72
2023/10/20 12:13:58;;;;;;;8.77;5.72;;;;;15.30;97225.00;;;;10332351;28;20292;-71
2023/10/20 12:19:01;;;;;;;7.70;5.57;;;;;15.10;97221.00;;;;10333423;28;20234;-72
2023/10/20 12:24:04;;;;;;;6.28;5.68;;;;;15.00;97230.00;;;;10333010;28;20241;-72
2023/10/20 12:29:06;;;;;;;10.75;5.85;;;;;14.90;97247.00;;;;10336267;28;20210;-71
2023/10/20 12:34:09;;;;;;;9.77;5.45;;;;;14.90;97249.00;;;;10330527;28;20214;-71
2023/10/20 12:39:17;;;;;;;8.70;5.18;;;;;14.80;97264.00;;;;10296663;28;20222;-71
2023/10/20 12:44:19;;;;;;;8.18;4.95;;;;;14.60;97261.00;;;;10325403;28;20237;-71
2023/10/20 12:49:21;;;;;;;6.00;5.20;;;;;14.60;97269.00;;;;10317234;28;20288;-72
2023/10/20 12:54:23;;;;;;;7.15;4.22;;;;;14.50;97277.00;;;;10322594;28;20257;-71
2023/10/20 12:59:25;;;;;;;5.32;4.68;;;;;14.40;97274.00;;;;10326739;28;20222;-71
2023/10/20 13:04:27;;;;;;;7.63;4.78;;;;;14.40;97282.00;;;;10322303;28;20241;-72
2023/10/20 13:09:30;;;;;;;5.80;4.55;;;;;14.50;97280.00;;;;10312306;28;20210;-71
2023/10/20 13:14:34;;;;;;;9.15;5.25;;;;;14.60;97291.00;;;;10331599;28;20210;-71
2023/10/20 13:19:37;;;;;;;6.43;5.05;;;;;14.70;97296.00;;;;10286154;28;20226;-71
2023/10/20 13:24:40;;;;;;;7.63;5.38;;;;;14.70;97298.00;;;;10313227;28;20226;-71
2023/10/20 13:29:42;;;;;;;5.50;4.95;;;;;14.80;97301.00;;;;10290052;28;21046;-70
2023/10/20 13:34:44;;;;;;;6.80;5.03;;;;;14.90;97300.00;;;;10287639;28;20217;-71
2023/10/20 13:39:46;;;;;;;10.05;6.13;;;;;15.00;97309.00;;;;10306793;28;20233;-71
2023/10/20 13:44:48;;;;;;;7.20;5.32;;;;;15.10;97319.00;;;;10308736;28;20259;-71
2023/10/20 13:49:50;;;;;;;6.07;5.53;;;;;15.00;97315.00;;;;10286562;28;20261;-70
2023/10/20 13:54:52;;;;;;;6.20;5.07;;;;;14.90;97316.00;;;;10304196;28;20249;-70
2023/10/20 13:59:54;;;;;;;10.23;5.80;;;;;14.80;97328.00;;;;10283386;28;20329;-71
2023/10/20 14:04:57;;;;;;;7.90;5.50;;;;;14.90;97325.00;;;;10274185;28;21933;-71
2023/10/20 14:09:59;;;;;;;7.88;6.68;;;;;15.00;97322.00;;;;10309393;28;20248;-71
2023/10/20 14:15:03;;;;;;;9.30;8.40;;;;;15.10;97321.00;;;;10103205;28;20216;-71
2023/10/20 14:20:06;;;;;;;10.10;8.75;;;;;15.20;97329.00;;;;10113926;28;20323;-71
2023/10/20 14:25:08;;;;;;;11.68;9.07;;;;;15.30;97335.00;;;;10024604;28;23086;-71
2023/10/20 14:30:10;;;;;;;10.45;9.35;;;;;15.20;97328.00;;;;10154519;28;20230;-71
2023/10/20 14:35:12;;;;;;;12.40;10.23;;;;;15.20;97342.00;;;;10074446;28;20242;-72
2023/10/20 14:40:14;;;;;;;12.85;9.07;;;;;15.10;97340.00;;;;10191223;28;20226;-72
2023/10/20 14:45:16;;;;;;;10.50;9.40;;;;;15.10;97338.00;;;;10111181;28;20284;-72
2023/10/20 14:50:18;;;;;;;8.57;7.72;;;;;14.90;97330.00;;;;10110148;28;20207;-72
2023/10/20 14:55:20;;;;;;;9.25;8.18;;;;;14.80;97326.00;;;;10161201;28;20210;-72
2023/10/20 15:00:22;;;;;;;8.70;7.07;;;;;14.80;97341.00;;;;10086997;28;20328;-72
2023/10/20 15:05:25;;;;;;;10.15;8.02;;;;;14.80;97334.00;;;;10207113;28;20240;-72
2023/10/20 15:10:28;;;;;;;9.90;7.90;;;;;14.90;97333.00;;;;10116695;28;20217;-72
2023/10/20 15:15:31;;;;;;;10.10;6.68;;;;;14.90;97329.00;;;;10148905;28;20218;-72
2023/10/20 15:20:33;;;;;;;7.10;6.07;;;;;14.90;97329.00;;;;10118862;28;21642;-72
2023/10/20 15:25:36;;;;;;;7.00;4.95;;;;;14.80;97325.00;;;;10107860;28;22414;-72
2023/10/20 15:30:38;;;;;;;5.47;4.35;;;;;14.90;97333.00;;;;10182489;28;20210;-72
2023/10/20 15:35:41;;;;;;;7.13;4.38;;;;;14.80;97339.00;;;;10098166;28;20964;-73
2023/10/20 15:40:50;;;;;;;4.78;3.83;;;;;14.80;97343.00;;;;10187174;28;20226;-71
2023/10/20 15:45:53;;;;;;;3.97;3.63;;;;;14.90;97354.00;;;;10041905;28;21113;-71
2023/10/20 15:50:55;;;;;;;7.43;4.13;;;;;14.80;97355.00;;;;10083607;28;20206;-71
2023/10/20 15:55:57;;;;;;;4.43;4.03;;;;;14.80;97366.00;;;;10120477;28;20931;-71
2023/10/20 16:00:59;;;;;;;4.78;4.25;;;;;14.70;97368.00;;;;10035191;28;20230;-71
2023/10/20 16:06:02;;;;;;;4.68;4.22;;;;;14.60;97371.00;;;;10144747;28;21113;-71
2023/10/20 16:11:05;;;;;;;7.53;4.30;;;;;14.50;97380.00;;;;10035637;28;20288;-72
2023/10/20 16:16:07;;;;;;;5.90;4.22;;;;;14.50;97381.00;;;;10116067;28;20221;-72
2023/10/20 16:21:09;;;;;;;5.70;4.80;;;;;14.50;97389.00;;;;10094418;28;20746;-70
2023/10/20 16:26:12;;;;;;;6.88;4.45;;;;;14.50;97394.00;;;;10066097;28;20248;-71
2023/10/20 16:31:14;;;;;;;6.15;4.47;;;;;14.50;97394.00;;;;10135116;28;21277;-71
2023/10/20 16:36:16;;;;;;;5.78;4.60;;;;;14.50;97402.00;;;;10029825;28;20245;-71
2023/10/20 16:41:18;;;;;;;5.97;4.68;;;;;14.40;97409.00;;;;10151905;28;20256;-72
2023/10/20 16:46:20;;;;;;;10.30;4.65;;;;;14.40;97427.00;;;;10075009;28;20206;-72
2023/10/20 16:51:23;;;;;;;8.23;5.60;;;;;14.30;97430.00;;;;10112942;28;20218;-71
2023/10/20 16:56:25;;;;;;;9.20;5.18;;;;;14.30;97426.00;;;;10128821;28;20232;-71
2023/10/20 17:01:29;;;;;;;13.25;5.15;;;;;14.10;97427.00;;;;10056328;28;20337;-71
2023/10/20 17:06:31;;;;;;;14.13;5.18;;;;;14.10;97427.00;;;;10150886;28;21146;-71
2023/10/20 17:11:33;;;;;;;9.68;4.70;;;;;14.10;97432.00;;;;10067185;28;20222;-71
2023/10/20 17:16:38;;;;;;;11.82;4.95;;;;;14.00;97428.00;;;;10135329;28;21087;-71
2023/10/20 17:21:40;;;;;;;7.30;4.38;;;;;13.90;97437.00;;;;10098591;28;20357;-72
2023/10/20 17:26:41;;;;;;;8.23;4.85;;;;;13.90;97442.00;;;;10063460;28;20214;-71
2023/10/20 17:31:43;;;;;;;7.05;4.93;;;;;13.80;97441.00;;;;10148186;28;20216;-72
2023/10/20 17:36:45;;;;;;;13.73;5.38;;;;;13.60;97451.00;;;;10051072;28;20222;-71
2023/10/20 17:41:48;;;;;;;7.22;6.03;;;;;13.50;97451.00;;;;10137417;28;20252;-71
2023/10/20 17:46:50;;;;;;;9.93;6.60;;;;;13.40;97468.00;;;;10063761;28;20210;-71
2023/10/20 17:51:52;;;;;;;12.15;6.20;;;;;13.30;97473.00;;;;10119523;28;20206;-71
2023/10/20 17:56:54;;;;;;;13.18;6.65;;;;;13.30;97468.00;;;;10115665;28;21305;-71
2023/10/20 18:01:56;;;;;;;14.68;6.85;;;;;13.30;97474.00;;;;10063177;28;20229;-71
2023/10/20 18:06:58;;;;;;;9.27;5.93;;;;;13.30;97478.00;;;;10175420;28;20725;-71
2023/10/20 18:12:00;;;;;;;10.88;5.13;;;;;13.30;97469.00;;;;10058951;28;20242;-71
2023/10/20 18:17:02;;;;;;;12.30;5.63;;;;;13.20;97475.00;;;;10146959;28;20218;-72
2023/10/20 18:22:05;;;;;;;10.75;5.53;;;;;13.20;97482.00;;;;10090151;28;20218;-71
2023/10/20 18:27:08;;;;;;;14.73;6.22;;;;;13.20;97476.00;;;;10093416;28;23089;-71
2023/10/20 18:32:11;;;;;;;11.68;5.60;;;;;13.10;97476.00;;;;10150895;28;20214;-71
2023/10/20 18:37:13;;;;;;;13.00;5.55;;;;;13.10;97476.00;;;;10061082;28;20325;-71
2023/10/20 18:42:14;;;;;;;14.25;5.68;;;;;13.10;97479.00;;;;10160886;28;20226;-72
2023/10/20 18:47:17;;;;;;;11.68;6.07;;;;;13.10;97480.00;;;;10071408;28;21024;-72
2023/10/20 18:52:19;;;;;;;12.88;6.28;;;;;13.10;97488.00;;;;10109692;28;20300;-72
2023/10/20 18:57:21;;;;;;;13.55;5.93;;;;;13.00;97481.00;;;;10099846;28;20234;-71
2023/10/20 19:02:23;;;;;;;14.23;6.03;;;;;13.00;97494.00;;;;10068714;28;20257;-72
2023/10/20 19:07:25;;;;;;;17.17;5.88;;;;;13.00;97498.00;;;;10110681;28;20214;-72
2023/10/20 19:12:27;;;;;;;9.90;4.93;;;;;13.00;97505.00;;;;10082265;28;22709;-72
2023/10/20 19:17:29;;;;;;;13.45;6.13;;;;;13.00;97520.00;;;;10064187;28;20234;-72
2023/10/20 19:22:31;;;;;;;15.27;5.70;;;;;13.00;97527.00;;;;10042146;28;20289;-73
2023/10/20 19:27:34;;;;;;;11.43;5.13;;;;;13.00;97525.00;;;;10120819;28;20810;-72
2023/10/20 19:32:36;;;;;;;13.80;5.50;;;;;13.00;97541.00;;;;10103169;28;20218;-72
2023/10/20 19:37:38;;;;;;;11.35;5.32;;;;;12.90;97542.00;;;;10242760;28;21925;-72
2023/10/20 19:42:40;;;;;;;12.93;5.90;;;;;12.90;97545.00;;;;10262593;28;20207;-72
2023/10/20 19:47:44;;;;;;;13.48;6.07;;;;;12.90;97559.00;;;;10397705;28;20202;-72
2023/10/20 19:52:51;;;;;;;13.18;6.35;;;;;12.80;97561.00;;;;10418965;28;20289;-72
2023/10/20 19:57:53;;;;;;;18.85;6.20;;;;;12.70;97573.00;;;;10413031;28;20242;-71
2023/10/20 20:02:55;;;;;;;10.73;5.93;;;;;12.70;97578.00;;;;10426138;28;20293;-72
2023/10/20 20:07:57;;;;;;;13.57;6.72;;;;;12.70;97583.00;;;;10418796;28;20206;-72
2023/10/20 20:12:59;;;;;;;18.15;6.85;;;;;12.70;97588.00;;;;10381666;28;20293;-72
2023/10/20 20:18:01;;;;;;;10.27;6.63;;;;;12.60;97599.00;;;;10365540;28;20795;-72
2023/10/20 20:23:03;;;;;;;15.77;6.72;;;;;12.60;97605.00;;;;10403555;28;21011;-73
2023/10/20 20:28:05;;;;;;;18.58;7.10;;;;;12.60;97613.00;;;;10418226;28;20346;-73
2023/10/20 20:33:07;;;;;;;10.40;6.57;;;;;12.60;97620.00;;;;10418246;28;21396;-73
2023/10/20 20:38:09;;;;;;;14.43;6.53;;;;;12.50;97618.00;;;;10416824;28;20767;-73
2023/10/20 20:43:11;;;;;;;11.48;6.45;;;;;12.50;97618.00;;;;10400853;28;20307;-73
2023/10/20 20:48:13;;;;;;;16.25;6.47;;;;;12.40;97624.00;;;;10413618;28;20297;-73
2023/10/20 20:53:16;;;;;;;11.85;6.90;;;;;12.40;97625.00;;;;10428082;28;20783;-73
2023/10/20 20:58:18;;;;;;;12.05;6.13;;;;;12.30;97627.00;;;;10405461;28;20237;-72
2023/10/20 21:03:20;;;;;;;14.93;7.07;;;;;12.30;97631.00;;;;10412998;28;20233;-72
2023/10/20 21:08:22;;;;;;;14.07;6.18;;;;;12.20;97636.00;;;;10430199;28;20233;-73
2023/10/20 21:13:24;;;;;;;12.07;5.43;;;;;12.30;97641.00;;;;10426208;28;20206;-72
2023/10/20 21:18:25;;;;;;;11.70;5.90;;;;;12.30;97654.00;;;;10444079;28;20325;-73
2023/10/20 21:23:28;;;;;;;11.05;5.82;;;;;12.30;97656.00;;;;10433072;28;20641;-73
2023/10/20 21:28:30;;;;;;;15.57;5.93;;;;;12.30;97654.00;;;;10410671;28;20285;-72
2023/10/20 21:33:32;;;;;;;12.63;5.90;;;;;12.40;97650.00;;;;10412337;28;20345;-71
2023/10/20 21:38:34;;;;;;;12.73;5.87;;;;;12.50;97659.00;;;;10395846;28;20309;-71
2023/10/20 21:43:36;;;;;;;11.65;6.10;;;;;12.50;97666.00;;;;10420906;28;20722;-71
2023/10/20 21:48:38;;;;;;;11.88;5.60;;;;;12.50;97667.00;;;;10413865;28;20198;-71
2023/10/20 21:53:41;;;;;;;12.02;6.18;;;;;12.50;97658.00;;;;10393513;28;20301;-72
2023/10/20 21:58:43;;;;;;;13.20;5.80;;;;;12.50;97667.00;;;;10416701;28;20222;-72
2023/10/20 22:03:45;;;;;;;13.75;5.50;;;;;12.50;97665.00;;;;10399917;28;20210;-72
2023/10/20 22:08:48;;;;;;;11.27;7.03;;;;;12.40;97665.00;;;;10411775;28;20293;-72
2023/10/20 22:13:50;;;;;;;14.10;6.25;;;;;12.40;97672.00;;;;10401223;28;20214;-71
2023/10/20 22:18:52;;;;;;;15.43;6.38;;;;;12.30;97676.00;;;;10417093;28;20233;-71
2023/10/20 22:23:54;;;;;;;15.00;6.27;;;;;12.30;97675.00;;;;10396626;28;20211;-71
2023/10/20 22:28:56;;;;;;;13.03;5.97;;;;;12.40;97690.00;;;;10410596;28;20211;-71
2023/10/20 22:33:58;;;;;;;11.97;5.67;;;;;12.50;97692.00;;;;10424151;28;20584;-71
2023/10/20 22:39:00;;;;;;;9.20;5.78;;;;;12.50;97690.00;;;;10408140;28;20322;-72
2023/10/20 22:44:02;;;;;;;13.73;7.88;;;;;12.50;97688.00;;;;10425137;28;20210;-72
2023/10/20 22:49:05;;;;;;;10.83;6.40;;;;;12.50;97702.00;;;;10411066;28;20230;-72
2023/10/20 22:54:08;;;;;;;12.18;5.72;;;;;12.40;97714.00;;;;10432515;28;20318;-73
2023/10/20 22:59:10;;;;;;;10.77;5.70;;;;;12.40;97731.00;;;;10434328;28;20288;-73
2023/10/20 23:04:12;;;;;;;9.57;5.85;;;;;12.40;97727.00;;;;10426868;28;20265;-73
2023/10/20 23:09:19;;;;;;;10.65;6.25;;;;;12.50;97740.00;;;;10387129;28;20215;-73
2023/10/20 23:14:21;;;;;;;13.90;6.72;;;;;12.60;97756.00;;;;10440107;28;20212;-72
2023/10/20 23:19:23;;;;;;;16.23;6.67;;;;;12.60;97759.00;;;;10400401;28;20320;-73
2023/10/20 23:24:24;;;;;;;10.40;6.50;;;;;12.70;97774.00;;;;10408658;28;20318;-73
2023/10/20 23:29:26;;;;;;;9.80;6.30;;;;;12.70;97768.00;;;;10408770;28;21023;-73
2023/10/20 23:34:28;;;;;;;13.13;7.13;;;;;12.80;97760.00;;;;10419924;28;20569;-72
2023/10/20 23:39:32;;;;;;;13.10;5.97;;;;;12.80;97774.00;;;;10407392;28;20361;-72
2023/10/20 23:44:35;;;;;;;12.60;6.72;;;;;12.80;97777.00;;;;10416462;28;20211;-72
2023/10/20 23:49:38;;;;;;;6.47;5.50;;;;;12.80;97776.00;;;;10425125;28;20792;-73
2023/10/20 23:54:40;;;;;;;10.97;5.43;;;;;12.80;97790.00;;;;10376753;28;20210;-72
2023/10/20 23:59:42;;;;;;;9.13;5.78;;;;;12.80;97791.00;;;;10404014;28;20227;-72
